Time;durP1;ratioP1;P1;durP2;ratioP2;P2;SDS_P1;SDS_P2;PMS_P1;PMS_P2;Temp;Humidity;BMP_temperature;BMP_pressure;BME280_temperature;BME280_humidity;BME280_pressure;Samples;Min_cycle;Max_cycle;Signal;HPM_P1;HPM_P2
2023/08/07 00:00:23;;;;;;;10.27;2.67;;;14.60;99.90;;;;;;5074312;28;20020;-72
2023/08/07 00:02:49;;;;;;;15.38;2.50;;;14.60;99.90;;;;;;5075473;28;20032;-72
2023/08/07 00:05:16;;;;;;;9.57;2.58;;;14.60;99.90;;;;;;5075285;28;20524;-70
2023/08/07 00:07:42;;;;;;;10.93;2.65;;;14.50;99.90;;;;;;5074982;28;20107;-70
2023/08/07 00:10:08;;;;;;;9.73;2.03;;;14.50;99.90;;;;;;5075367;28;20385;-70
2023/08/07 00:12:34;;;;;;;8.50;2.33;;;14.50;99.90;;;;;;5075162;28;20032;-69
2023/08/07 00:15:01;;;;;;;11.40;2.45;;;14.50;99.90;;;;;;5075219;28;20307;-70
2023/08/07 00:17:26;;;;;;;11.35;2.70;;;14.50;99.90;;;;;;5075157;28;20145;-70
2023/08/07 00:19:52;;;;;;;6.32;2.38;;;14.50;99.90;;;;;;5074731;28;20030;-70
2023/08/07 00:22:18;;;;;;;8.18;2.25;;;14.40;99.90;;;;;;5075078;28;20020;-71
2023/08/07 00:24:43;;;;;;;12.38;2.47;;;14.40;99.90;;;;;;5074905;28;20028;-70
2023/08/07 00:27:12;;;;;;;8.52;2.22;;;14.40;99.90;;;;;;5074913;28;20047;-71
2023/08/07 00:29:38;;;;;;;7.80;1.95;;;14.40;99.90;;;;;;5074432;28;20037;-70
2023/08/07 00:32:05;;;;;;;7.90;2.30;;;14.40;99.90;;;;;;5074721;28;20037;-72
2023/08/07 00:34:30;;;;;;;8.13;2.05;;;14.40;99.90;;;;;;5074528;28;20481;-69
2023/08/07 00:36:56;;;;;;;8.55;2.50;;;14.30;99.90;;;;;;5074661;28;20081;-69
2023/08/07 00:39:21;;;;;;;10.77;2.60;;;14.30;99.90;;;;;;5074597;28;20099;-69
2023/08/07 00:41:47;;;;;;;11.38;2.45;;;14.20;99.90;;;;;;5074319;28;20119;-70
2023/08/07 00:44:13;;;;;;;8.38;2.35;;;14.20;99.90;;;;;;5074516;28;20389;-69
2023/08/07 00:46:39;;;;;;;9.85;2.20;;;14.30;99.90;;;;;;5074439;28;20492;-70
2023/08/07 00:49:06;;;;;;;9.23;2.78;;;14.20;99.90;;;;;;5073933;28;20033;-69
2023/08/07 00:51:32;;;;;;;5.45;2.10;;;14.20;99.90;;;;;;5074567;28;20107;-69
2023/08/07 00:54:00;;;;;;;10.15;2.15;;;14.20;99.90;;;;;;5074363;28;20032;-69
2023/08/07 00:56:26;;;;;;;13.40;2.83;;;14.20;99.90;;;;;;5074481;28;20099;-69
2023/08/07 00:58:53;;;;;;;8.57;2.50;;;14.20;99.90;;;;;;5074263;28;20029;-69
2023/08/07 01:01:19;;;;;;;7.40;2.42;;;14.10;99.90;;;;;;5074487;28;20032;-69
2023/08/07 01:03:44;;;;;;;12.75;2.67;;;14.10;99.90;;;;;;5073944;28;20024;-69
2023/08/07 01:06:10;;;;;;;8.38;2.38;;;14.10;99.90;;;;;;5074221;28;20024;-69
2023/08/07 01:08:36;;;;;;;10.48;2.38;;;14.10;99.90;;;;;;5072998;28;20032;-69
2023/08/07 01:11:05;;;;;;;10.13;2.83;;;14.10;99.90;;;;;;5073927;28;20024;-70
2023/08/07 01:13:59;;;;;;;10.70;2.35;;;14.10;99.90;;;;;;5073724;28;20047;-70
2023/08/07 01:16:29;;;;;;;8.25;2.47;;;14.10;99.90;;;;;;5071386;28;20040;-70
2023/08/07 01:18:56;;;;;;;9.65;2.90;;;14.10;99.90;;;;;;5072586;28;20033;-71
2023/08/07 01:21:22;;;;;;;10.45;2.75;;;14.10;99.90;;;;;;5073659;28;20077;-70
2023/08/07 01:23:48;;;;;;;10.02;2.78;;;14.00;99.90;;;;;;5073785;28;20028;-71
2023/08/07 01:26:16;;;;;;;7.72;2.10;;;14.00;99.90;;;;;;5073495;28;20035;-70
2023/08/07 01:28:50;;;;;;;12.02;2.72;;;14.00;99.90;;;;;;5072517;28;20070;-69
2023/08/07 01:31:22;;;;;;;9.95;2.38;;;14.00;99.90;;;;;;5073416;28;20025;-70
2023/08/07 01:33:56;;;;;;;10.55;2.60;;;13.90;99.90;;;;;;5073473;28;20115;-71
2023/08/07 01:36:24;;;;;;;10.27;2.83;;;13.90;99.90;;;;;;5073620;28;20017;-72
2023/08/07 01:38:52;;;;;;;6.00;2.53;;;13.90;99.90;;;;;;5073567;28;20427;-71
2023/08/07 01:41:19;;;;;;;10.55;3.08;;;13.90;99.90;;;;;;5073064;28;20032;-70
2023/08/07 01:43:45;;;;;;;9.35;2.50;;;13.90;99.90;;;;;;5073063;28;20035;-70
2023/08/07 01:46:11;;;;;;;9.70;2.75;;;13.80;99.90;;;;;;5073027;28;20103;-71
2023/08/07 01:48:36;;;;;;;9.93;2.45;;;13.80;99.90;;;;;;5072022;28;20123;-70
2023/08/07 01:51:02;;;;;;;9.48;2.55;;;13.80;99.90;;;;;;5073472;28;20033;-70
2023/08/07 01:53:28;;;;;;;9.45;2.33;;;13.80;99.90;;;;;;5073456;28;20413;-69
2023/08/07 01:55:53;;;;;;;12.30;2.72;;;13.70;99.90;;;;;;5071940;28;20027;-72
2023/08/07 01:58:19;;;;;;;8.77;2.92;;;13.70;99.90;;;;;;5073354;28;20024;-70
2023/08/07 02:00:45;;;;;;;11.25;2.72;;;13.70;99.90;;;;;;5072879;28;20025;-71
2023/08/07 02:03:10;;;;;;;9.77;2.55;;;13.70;99.90;;;;;;5073359;28;20028;-70
2023/08/07 02:05:36;;;;;;;7.00;2.75;;;13.70;99.90;;;;;;5073183;28;20461;-70
2023/08/07 02:08:01;;;;;;;7.25;2.42;;;13.70;99.90;;;;;;5073139;28;20025;-70
2023/08/07 02:10:28;;;;;;;6.65;2.65;;;13.70;99.90;;;;;;5073464;28;20476;-71
2023/08/07 02:12:53;;;;;;;10.93;3.00;;;13.70;99.90;;;;;;5073090;28;20032;-70
2023/08/07 02:15:19;;;;;;;10.45;2.28;;;13.70;99.90;;;;;;5072853;28;20020;-69
2023/08/07 02:17:45;;;;;;;6.72;2.22;;;13.70;99.90;;;;;;5072927;28;20032;-70
2023/08/07 02:20:11;;;;;;;12.70;2.63;;;13.60;99.90;;;;;;5073042;28;20029;-70
2023/08/07 02:22:36;;;;;;;8.15;2.10;;;13.60;99.90;;;;;;5072962;28;20024;-70
2023/08/07 02:25:02;;;;;;;8.88;2.67;;;13.60;99.90;;;;;;5073139;28;20017;-71
2023/08/07 02:27:27;;;;;;;13.80;2.63;;;13.60;99.90;;;;;;5072827;28;20036;-72
2023/08/07 02:29:54;;;;;;;10.57;2.28;;;13.60;99.90;;;;;;5072604;28;20025;-70
2023/08/07 02:32:19;;;;;;;6.82;2.25;;;13.50;99.90;;;;;;5072884;28;20040;-70
2023/08/07 02:34:45;;;;;;;8.38;2.20;;;13.60;99.90;;;;;;5072933;28;20539;-71
2023/08/07 02:37:11;;;;;;;13.70;2.67;;;13.60;99.90;;;;;;5071503;28;20035;-70
2023/08/07 02:39:37;;;;;;;11.07;2.22;;;13.60;99.90;;;;;;5072845;28;20440;-69
2023/08/07 02:42:03;;;;;;;6.53;2.20;;;13.60;99.90;;;;;;5072630;28;20073;-70
2023/08/07 02:44:28;;;;;;;7.10;2.08;;;13.60;99.90;;;;;;5072728;28;20028;-70
2023/08/07 02:46:54;;;;;;;7.13;2.72;;;13.50;99.90;;;;;;5072604;28;20082;-70
2023/08/07 02:49:20;;;;;;;7.78;2.80;;;13.60;99.90;;;;;;5072755;28;20490;-72
2023/08/07 02:51:45;;;;;;;8.40;2.58;;;13.60;99.90;;;;;;5072703;28;20026;-70
2023/08/07 02:54:12;;;;;;;11.15;2.60;;;13.60;99.90;;;;;;5075065;28;20053;-70
2023/08/07 02:56:38;;;;;;;7.55;1.90;;;13.60;99.90;;;;;;5076463;28;20511;-69
2023/08/07 02:59:04;;;;;;;7.80;2.20;;;13.60;99.90;;;;;;5076564;28;20025;-70
2023/08/07 03:01:30;;;;;;;6.55;1.83;;;13.60;99.90;;;;;;5075294;28;20032;-70
2023/08/07 03:03:55;;;;;;;9.25;2.47;;;13.60;99.90;;;;;;5076499;28;20028;-70
2023/08/07 03:06:21;;;;;;;5.43;2.08;;;13.60;99.90;;;;;;5076569;28;20511;-70
2023/08/07 03:08:47;;;;;;;10.88;2.28;;;13.70;99.90;;;;;;5076537;28;20420;-70
2023/08/07 03:11:12;;;;;;;12.18;3.13;;;13.70;99.90;;;;;;5076356;28;20021;-70
2023/08/07 03:13:38;;;;;;;14.00;2.47;;;13.80;99.90;;;;;;5076089;28;20094;-71
2023/08/07 03:16:06;;;;;;;15.07;9.25;;;13.70;99.90;;;;;;5076580;28;20024;-72
2023/08/07 03:18:32;;;;;;;8.85;3.05;;;13.80;99.90;;;;;;5074804;28;20079;-71
2023/08/07 03:20:58;;;;;;;6.07;2.10;;;13.80;99.90;;;;;;5076075;28;20062;-72
2023/08/07 03:23:25;;;;;;;8.27;1.83;;;13.80;99.90;;;;;;5076063;28;20073;-72
2023/08/07 03:26:01;;;;;;;5.93;2.13;;;13.80;99.90;;;;;;5076025;28;20020;-73
2023/08/07 03:28:26;;;;;;;8.52;2.00;;;13.80;99.90;;;;;;5075784;28;20469;-70
2023/08/07 03:30:52;;;;;;;10.65;2.65;;;13.80;99.90;;;;;;5075956;28;20102;-72
2023/08/07 03:33:17;;;;;;;5.82;2.08;;;13.80;99.90;;;;;;5075866;28;20040;-70
2023/08/07 03:35:43;;;;;;;8.15;2.33;;;13.80;99.90;;;;;;5074666;28;20115;-70
2023/08/07 03:38:08;;;;;;;3.78;1.92;;;13.80;99.90;;;;;;5075764;28;20461;-72
2023/08/07 03:40:34;;;;;;;8.90;2.15;;;13.80;99.90;;;;;;5075927;28;20475;-72
2023/08/07 03:43:00;;;;;;;5.15;1.98;;;13.80;99.90;;;;;;5075389;28;20025;-70
2023/08/07 03:45:25;;;;;;;9.23;2.38;;;13.80;99.90;;;;;;5075978;28;20171;-72
2023/08/07 03:47:51;;;;;;;6.13;2.35;;;13.80;99.90;;;;;;5075413;28;20060;-70
2023/08/07 03:50:16;;;;;;;8.25;2.10;;;13.80;99.90;;;;;;5075664;28;20420;-69
2023/08/07 03:52:42;;;;;;;8.32;2.63;;;13.80;99.90;;;;;;5075356;28;20039;-69
2023/08/07 03:55:08;;;;;;;6.80;2.05;;;13.70;99.90;;;;;;5075650;28;20028;-70
2023/08/07 03:57:33;;;;;;;8.18;2.50;;;13.70;99.90;;;;;;5075234;28;20082;-71
2023/08/07 03:59:59;;;;;;;4.88;1.77;;;13.70;99.90;;;;;;5075509;28;20024;-70
2023/08/07 04:02:25;;;;;;;5.63;1.98;;;13.80;99.90;;;;;;5075566;28;20513;-70
2023/08/07 04:04:50;;;;;;;6.80;1.83;;;13.80;99.90;;;;;;5074331;28;20401;-69
2023/08/07 04:07:16;;;;;;;6.60;2.00;;;13.70;99.90;;;;;;5075417;28;20058;-72
2023/08/07 04:09:41;;;;;;;5.80;2.10;;;13.70;99.90;;;;;;5075128;28;20465;-70
2023/08/07 04:12:07;;;;;;;7.35;2.30;;;13.70;99.90;;;;;;5074874;28;20040;-71
2023/08/07 04:14:33;;;;;;;7.43;1.75;;;13.70;99.90;;;;;;5075182;28;20025;-70
2023/08/07 04:17:00;;;;;;;8.50;2.60;;;13.70;99.90;;;;;;5075015;28;20073;-72
2023/08/07 04:19:26;;;;;;;7.65;2.00;;;13.70;99.90;;;;;;5075191;28;20382;-72
2023/08/07 04:21:52;;;;;;;8.40;2.22;;;13.60;99.90;;;;;;5075116;28;20463;-69
2023/08/07 04:24:17;;;;;;;9.57;2.13;;;13.60;99.90;;;;;;5074892;28;20139;-70
2023/08/07 04:26:43;;;;;;;9.05;2.65;;;13.60;99.90;;;;;;5073410;28;20031;-72
2023/08/07 04:29:08;;;;;;;6.80;2.40;;;13.60;99.90;;;;;;5074892;28;20021;-72
2023/08/07 04:31:34;;;;;;;7.88;2.30;;;13.60;99.90;;;;;;5074959;28;20386;-72
2023/08/07 04:34:00;;;;;;;5.95;2.10;;;13.50;99.90;;;;;;5073334;28;20067;-71
2023/08/07 04:36:25;;;;;;;6.80;2.28;;;13.50;99.90;;;;;;5074780;28;20071;-70
2023/08/07 04:38:51;;;;;;;7.82;2.30;;;13.50;99.90;;;;;;5074516;28;20037;-73
2023/08/07 04:41:17;;;;;;;7.95;2.45;;;13.50;99.90;;;;;;5074384;28;20048;-72
2023/08/07 04:43:42;;;;;;;6.93;2.17;;;13.40;99.90;;;;;;5074622;28;20113;-74
2023/08/07 04:46:09;;;;;;;5.45;2.00;;;13.70;99.90;;;;;;5074657;28;20457;-74
2023/08/07 04:48:35;;;;;;;4.55;1.75;;;14.00;99.90;;;;;;5074391;28;20077;-72
2023/08/07 04:51:01;;;;;;;4.88;1.77;;;14.20;99.90;;;;;;5074404;28;20058;-73
2023/08/07 04:53:27;;;;;;;6.80;2.17;;;14.30;99.90;;;;;;5069111;28;20058;-74
2023/08/07 04:55:53;;;;;;;5.82;1.88;;;14.40;99.90;;;;;;5071778;28;20415;-74
2023/08/07 04:58:18;;;;;;;4.28;1.90;;;14.50;99.90;;;;;;5074497;28;20028;-72
2023/08/07 05:00:44;;;;;;;3.95;1.60;;;14.60;99.90;;;;;;5070541;28;20098;-73
2023/08/07 05:03:09;;;;;;;6.95;2.10;;;14.60;99.90;;;;;;5072832;28;20040;-75
2023/08/07 05:05:35;;;;;;;4.20;2.05;;;14.60;99.90;;;;;;5070372;28;20017;-72
2023/08/07 05:08:01;;;;;;;5.05;2.28;;;14.60;99.90;;;;;;5073503;28;20047;-72
2023/08/07 05:10:26;;;;;;;4.80;1.90;;;14.60;99.90;;;;;;5073702;28;20017;-73
2023/08/07 05:12:55;;;;;;;5.65;1.90;;;14.60;99.90;;;;;;5073998;28;20028;-71
2023/08/07 05:15:22;;;;;;;7.03;1.85;;;14.60;99.90;;;;;;5073951;28;20024;-73
2023/08/07 05:17:48;;;;;;;7.15;2.15;;;14.70;99.90;;;;;;5074116;28;20382;-73
2023/08/07 05:20:13;;;;;;;5.47;2.17;;;14.70;99.90;;;;;;5073678;28;20047;-73
2023/08/07 05:22:39;;;;;;;4.90;1.60;;;14.70;99.90;;;;;;5074061;28;20028;-73
2023/08/07 05:25:05;;;;;;;6.15;1.60;;;14.70;99.90;;;;;;5073458;28;20025;-73
2023/08/07 05:27:31;;;;;;;5.72;1.85;;;14.80;99.90;;;;;;5073962;28;20091;-75
2023/08/07 05:29:56;;;;;;;5.90;1.85;;;14.80;99.90;;;;;;5073601;28;20025;-73
2023/08/07 05:32:22;;;;;;;3.47;1.70;;;14.90;99.90;;;;;;5072458;28;20017;-72
2023/08/07 05:34:47;;;;;;;5.65;1.80;;;14.90;99.90;;;;;;5072301;28;20024;-73
2023/08/07 05:37:13;;;;;;;4.35;1.63;;;14.90;99.90;;;;;;5073732;28;20114;-72
2023/08/07 05:39:39;;;;;;;5.15;1.60;;;14.90;99.90;;;;;;5074233;28;20040;-72
2023/08/07 05:42:05;;;;;;;5.47;1.60;;;14.90;99.90;;;;;;5079032;28;20024;-72
2023/08/07 05:44:30;;;;;;;4.78;1.88;;;15.00;99.90;;;;;;5071723;28;20013;-72
2023/08/07 05:46:56;;;;;;;5.90;2.08;;;15.00;99.90;;;;;;5070343;28;20477;-72
2023/08/07 05:49:22;;;;;;;4.20;1.40;;;15.00;99.90;;;;;;5070532;28;20048;-73
2023/08/07 05:51:47;;;;;;;4.65;1.60;;;15.10;99.90;;;;;;5072025;28;20016;-72
2023/08/07 05:54:13;;;;;;;6.35;1.67;;;15.10;99.90;;;;;;5072904;28;20039;-72
2023/08/07 05:56:40;;;;;;;6.63;1.70;;;15.10;99.90;;;;;;5073244;28;20025;-72
2023/08/07 05:59:06;;;;;;;5.90;2.22;;;15.10;99.90;;;;;;5072243;28;20036;-72
2023/08/07 06:01:32;;;;;;;3.67;1.38;;;15.10;99.90;;;;;;5073115;28;20020;-72
2023/08/07 06:03:58;;;;;;;2.58;1.27;;;15.20;99.90;;;;;;5071158;28;20599;-73
2023/08/07 06:06:25;;;;;;;4.20;1.52;;;15.20;99.90;;;;;;5070671;28;20377;-72
2023/08/07 06:08:51;;;;;;;5.68;2.15;;;15.30;99.90;;;;;;5072963;28;20103;-72
2023/08/07 06:11:17;;;;;;;3.72;1.88;;;15.30;99.90;;;;;;5073366;28;20029;-72
2023/08/07 06:13:43;;;;;;;8.15;2.03;;;15.40;99.90;;;;;;5072690;28;20039;-72
2023/08/07 06:16:08;;;;;;;7.72;2.47;;;15.40;99.90;;;;;;5071673;28;20032;-75
2023/08/07 06:18:34;;;;;;;5.85;2.03;;;15.50;99.90;;;;;;5073444;28;20029;-72
2023/08/07 06:20:59;;;;;;;6.00;2.25;;;15.60;99.90;;;;;;5073117;28;20036;-73
2023/08/07 06:23:25;;;;;;;6.03;1.73;;;15.70;99.90;;;;;;5070984;28;20017;-73
2023/08/07 06:25:51;;;;;;;4.95;1.77;;;15.70;99.90;;;;;;5071215;28;20028;-73
2023/08/07 06:28:16;;;;;;;6.95;2.33;;;15.70;99.90;;;;;;5072437;28;20066;-73
2023/08/07 06:30:42;;;;;;;4.45;1.85;;;15.80;99.90;;;;;;5073070;28;20016;-73
2023/08/07 06:33:07;;;;;;;5.88;2.13;;;15.90;99.90;;;;;;5072932;28;20029;-72
2023/08/07 06:35:40;;;;;;;3.85;1.90;;;15.90;99.90;;;;;;5072953;28;20025;-72
2023/08/07 06:38:05;;;;;;;;;;;15.90;99.90;;;;;;5071453;28;20123;-71
2023/08/07 06:40:31;;;;;;;4.65;2.30;;;16.00;99.90;;;;;;5072692;28;19954;-73
2023/08/07 06:42:57;;;;;;;3.95;1.60;;;16.00;99.90;;;;;;5072237;28;20051;-73
2023/08/07 06:45:22;;;;;;;5.82;1.90;;;16.10;99.90;;;;;;5072589;28;20514;-73
2023/08/07 06:47:48;;;;;;;3.92;1.80;;;16.10;99.90;;;;;;5071267;28;20431;-73
2023/08/07 06:50:14;;;;;;;6.38;1.83;;;16.20;99.90;;;;;;5072267;28;20059;-73
2023/08/07 06:52:40;;;;;;;4.18;1.45;;;16.20;99.90;;;;;;5072304;28;20025;-74
2023/08/07 06:55:06;;;;;;;6.03;1.58;;;16.20;99.90;;;;;;5072646;28;20048;-73
2023/08/07 06:57:32;;;;;;;3.00;1.75;;;16.30;99.90;;;;;;5072473;28;20038;-73
2023/08/07 06:59:58;;;;;;;4.40;1.70;;;16.40;99.90;;;;;;5072572;28;20095;-73
2023/08/07 07:02:23;;;;;;;7.18;1.65;;;16.40;99.90;;;;;;5072564;28;20025;-74
2023/08/07 07:04:49;;;;;;;4.60;2.25;;;16.40;99.90;;;;;;5072393;28;20473;-74
2023/08/07 07:07:15;;;;;;;6.45;1.80;;;16.40;99.90;;;;;;5072510;28;20071;-74
2023/08/07 07:09:41;;;;;;;6.40;1.60;;;16.50;99.90;;;;;;5072636;28;20032;-74
2023/08/07 07:12:07;;;;;;;6.82;1.80;;;16.50;99.90;;;;;;5070970;28;20016;-74
2023/08/07 07:14:33;;;;;;;3.08;1.73;;;16.60;99.90;;;;;;5072596;28;20111;-73
2023/08/07 07:16:59;;;;;;;7.05;2.17;;;16.70;99.90;;;;;;5063229;28;20021;-74
2023/08/07 07:19:25;;;;;;;7.15;1.88;;;16.70;99.90;;;;;;5052242;28;20056;-74
2023/08/07 07:21:50;;;;;;;3.75;1.63;;;16.70;99.90;;;;;;5052496;28;20563;-74
2023/08/07 07:24:16;;;;;;;4.82;1.92;;;16.80;99.90;;;;;;5052364;28;20025;-74
2023/08/07 07:26:42;;;;;;;7.95;2.17;;;16.80;99.90;;;;;;5052080;28;20143;-74
2023/08/07 07:29:07;;;;;;;4.75;1.60;;;16.80;99.90;;;;;;5084606;28;20033;-74
2023/08/07 07:31:33;;;;;;;6.88;2.08;;;16.90;99.90;;;;;;5052484;28;20067;-74
2023/08/07 07:33:58;;;;;;;4.63;1.60;;;17.00;99.90;;;;;;5061553;28;20037;-74
2023/08/07 07:36:24;;;;;;;5.22;1.88;;;17.00;99.90;;;;;;5072079;28;20021;-75
2023/08/07 07:38:50;;;;;;;4.05;1.67;;;17.00;99.90;;;;;;5074247;28;20025;-73
2023/08/07 07:41:15;;;;;;;8.45;2.25;;;17.10;99.90;;;;;;5053775;28;20025;-74
2023/08/07 07:43:41;;;;;;;4.55;1.85;;;17.10;99.90;;;;;;5061358;28;20380;-73
2023/08/07 07:46:07;;;;;;;7.82;2.00;;;17.20;99.90;;;;;;5074224;28;20087;-73
2023/08/07 07:48:33;;;;;;;7.30;1.67;;;17.30;99.90;;;;;;5094073;28;20065;-74
2023/08/07 07:51:00;;;;;;;3.72;1.83;;;17.30;99.90;;;;;;5085538;28;20058;-74
2023/08/07 07:53:26;;;;;;;6.93;1.80;;;17.40;99.90;;;;;;5071331;28;20040;-73
2023/08/07 07:55:51;;;;;;;5.40;1.98;;;17.40;99.90;;;;;;5075619;28;20025;-73
2023/08/07 07:58:17;;;;;;;5.40;1.77;;;17.40;99.90;;;;;;5074523;28;20032;-73
2023/08/07 08:00:43;;;;;;;6.18;1.77;;;17.50;99.90;;;;;;5074143;28;20393;-72
2023/08/07 08:03:08;;;;;;;4.85;1.98;;;17.50;99.90;;;;;;5073110;28;20389;-72
2023/08/07 08:05:34;;;;;;;5.88;2.38;;;17.50;99.90;;;;;;5072916;28;20032;-73
2023/08/07 08:08:01;;;;;;;4.40;1.95;;;17.60;99.90;;;;;;5074645;28;20023;-72
2023/08/07 08:10:27;;;;;;;4.50;2.10;;;17.60;99.90;;;;;;5069236;28;20095;-72
2023/08/07 08:12:55;;;;;;;5.72;1.80;;;17.70;99.90;;;;;;5074339;28;20066;-72
2023/08/07 08:15:21;;;;;;;6.50;1.60;;;17.70;99.90;;;;;;5074549;28;20035;-72
2023/08/07 08:17:47;;;;;;;5.18;1.80;;;17.80;99.90;;;;;;5074195;28;20020;-73
2023/08/07 08:20:18;;;;;;;7.18;2.30;;;17.80;99.90;;;;;;5089647;28;20028;-73
2023/08/07 08:22:47;;;;;;;9.30;2.28;;;18.10;99.70;;;;;;5090477;28;20358;-73
2023/08/07 08:25:13;;;;;;;4.88;1.67;;;18.20;99.20;;;;;;5073734;28;20078;-72
2023/08/07 08:27:39;;;;;;;4.53;1.20;;;18.10;99.00;;;;;;5074953;28;20558;-72
2023/08/07 08:30:06;;;;;;;5.38;1.98;;;18.10;98.80;;;;;;5074820;28;20060;-72
2023/08/07 08:32:32;;;;;;;2.95;1.23;;;18.20;99.00;;;;;;5074500;28;20032;-73
2023/08/07 08:34:58;;;;;;;7.10;1.80;;;18.20;98.80;;;;;;5074826;28;20059;-73
2023/08/07 08:37:24;;;;;;;4.50;1.98;;;18.30;98.50;;;;;;5075171;28;20017;-73
2023/08/07 08:39:49;;;;;;;2.33;1.30;;;18.30;98.40;;;;;;5072014;28;20029;-72
2023/08/07 08:42:17;;;;;;;5.72;1.90;;;18.30;98.20;;;;;;5055667;28;20516;-72
2023/08/07 08:44:48;;;;;;;5.70;1.90;;;18.30;98.10;;;;;;5071291;28;20103;-73
2023/08/07 08:47:15;;;;;;;6.05;1.77;;;18.40;97.90;;;;;;5053116;28;20017;-72
2023/08/07 08:50:11;;;;;;;3.05;1.55;;;18.40;97.60;;;;;;5061820;28;20037;-73
2023/08/07 08:52:42;;;;;;;4.35;1.63;;;18.50;97.70;;;;;;5070923;28;20474;-72
2023/08/07 08:55:08;;;;;;;5.22;1.60;;;18.50;97.60;;;;;;5074405;28;20555;-72
2023/08/07 08:57:35;;;;;;;4.28;1.73;;;18.60;97.40;;;;;;5066159;28;20401;-72
2023/08/07 09:00:06;;;;;;;2.88;1.23;;;18.60;97.30;;;;;;5071912;28;20017;-72
2023/08/07 09:02:33;;;;;;;4.57;1.10;;;18.70;97.20;;;;;;5074127;28;20020;-73
2023/08/07 09:04:58;;;;;;;2.80;1.30;;;18.70;97.10;;;;;;5073990;28;20108;-73
2023/08/07 09:07:26;;;;;;;3.28;1.35;;;18.80;97.30;;;;;;5069092;28;20063;-73
2023/08/07 09:09:52;;;;;;;4.75;1.48;;;18.80;97.00;;;;;;5073560;28;20020;-73
2023/08/07 09:12:26;;;;;;;3.80;1.50;;;18.80;96.90;;;;;;5074046;28;20074;-73
2023/08/07 09:14:57;;;;;;;3.10;1.23;;;18.80;96.90;;;;;;5060484;28;20082;-72
2023/08/07 09:17:31;;;;;;;3.58;1.63;;;18.90;96.80;;;;;;5069241;28;20107;-72
2023/08/07 09:19:57;;;;;;;3.05;1.25;;;18.90;96.80;;;;;;5065115;28;20414;-73
2023/08/07 09:22:23;;;;;;;4.15;1.50;;;18.90;96.80;;;;;;5062318;28;20055;-73
2023/08/07 09:24:49;;;;;;;2.85;1.40;;;18.90;96.90;;;;;;5075840;28;20470;-74
2023/08/07 09:27:15;;;;;;;2.70;1.50;;;18.90;96.80;;;;;;5064750;28;20418;-73
2023/08/07 09:29:41;;;;;;;2.83;1.27;;;18.90;96.80;;;;;;5072942;28;20028;-73
2023/08/07 09:32:12;;;;;;;2.22;1.30;;;18.90;96.70;;;;;;5072296;28;20073;-72
2023/08/07 09:34:42;;;;;;;2.92;1.30;;;19.10;96.30;;;;;;5079068;28;20039;-74
2023/08/07 09:37:11;;;;;;;3.20;1.35;;;19.10;96.20;;;;;;5070621;28;20035;-74
2023/08/07 09:39:37;;;;;;;4.68;1.10;;;19.10;96.50;;;;;;5054241;28;20021;-74
2023/08/07 09:42:04;;;;;;;5.60;1.65;;;19.10;96.60;;;;;;5073126;28;20031;-73
2023/08/07 09:44:36;;;;;;;4.97;1.40;;;19.10;96.50;;;;;;5071987;28;20106;-73
2023/08/07 09:47:15;;;;;;;4.63;1.80;;;19.20;96.30;;;;;;5070784;28;20032;-73
2023/08/07 09:49:41;;;;;;;3.10;1.30;;;19.10;96.30;;;;;;5071352;28;20505;-72
2023/08/07 09:52:08;;;;;;;2.55;1.23;;;19.20;96.10;;;;;;5070386;28;20069;-73
2023/08/07 09:54:34;;;;;;;4.65;1.20;;;19.30;96.20;;;;;;5067677;28;20032;-74
2023/08/07 09:57:02;;;;;;;3.03;1.60;;;19.20;96.20;;;;;;5069214;28;20101;-72
2023/08/07 09:59:29;;;;;;;3.53;1.35;;;19.20;96.30;;;;;;5068794;28;20028;-72
2023/08/07 10:01:55;;;;;;;3.42;1.33;;;19.20;96.30;;;;;;5068401;28;20047;-73
2023/08/07 10:04:25;;;;;;;2.67;1.25;;;19.20;96.50;;;;;;5073006;28;20029;-72
2023/08/07 10:06:51;;;;;;;3.08;1.30;;;19.30;96.30;;;;;;5084665;28;20024;-73
2023/08/07 10:09:17;;;;;;;3.40;1.52;;;19.30;96.70;;;;;;5077429;28;20477;-72
2023/08/07 10:11:42;;;;;;;2.88;1.73;;;19.30;97.00;;;;;;5070870;28;20074;-73
2023/08/07 10:14:15;;;;;;;3.85;2.00;;;19.40;97.10;;;;;;5071789;28;20404;-74
2023/08/07 10:16:42;;;;;;;4.05;1.90;;;19.40;97.20;;;;;;5061474;28;20048;-73
2023/08/07 10:19:09;;;;;;;2.78;1.70;;;19.40;97.00;;;;;;5070736;28;20033;-74
2023/08/07 10:21:36;;;;;;;2.53;1.70;;;19.40;97.50;;;;;;5069306;28;20029;-73
2023/08/07 10:24:04;;;;;;;4.88;2.22;;;19.40;97.30;;;;;;5073032;28;20108;-73
2023/08/07 10:26:33;;;;;;;3.45;1.83;;;19.50;98.10;;;;;;5071532;28;20354;-73
2023/08/07 10:29:02;;;;;;;3.50;1.60;;;19.50;97.60;;;;;;5073253;28;20035;-73
2023/08/07 10:31:30;;;;;;;3.42;1.70;;;19.50;97.50;;;;;;5072023;28;20028;-74
2023/08/07 10:33:55;;;;;;;6.13;2.22;;;19.50;96.90;;;;;;5071956;28;20028;-73
2023/08/07 10:36:21;;;;;;;3.00;1.75;;;19.60;98.40;;;;;;5072218;28;20031;-74
2023/08/07 10:38:51;;;;;;;4.30;1.67;;;19.60;98.60;;;;;;5070223;28;20479;-73
2023/08/07 10:41:18;;;;;;;2.67;1.65;;;19.60;98.10;;;;;;5068304;28;20027;-74
2023/08/07 10:43:45;;;;;;;3.72;1.52;;;19.60;98.70;;;;;;5070861;28;20040;-74
2023/08/07 10:46:19;;;;;;;3.78;1.52;;;19.70;98.20;;;;;;5071185;28;20027;-69
2023/08/07 10:48:48;;;;;;;4.78;1.40;;;19.80;98.60;;;;;;5071582;28;20033;-72
2023/08/07 10:51:17;;;;;;;3.08;1.50;;;19.70;97.40;;;;;;5071180;28;20036;-77
2023/08/07 10:53:45;;;;;;;1.77;1.10;;;19.60;97.00;;;;;;5074046;28;20178;-77
2023/08/07 10:56:16;;;;;;;2.67;1.40;;;19.50;96.80;;;;;;5071884;28;20027;-76
2023/08/07 10:58:42;;;;;;;2.95;1.20;;;19.50;98.10;;;;;;5069030;28;20035;-76
2023/08/07 11:01:35;;;;;;;3.13;1.50;;;19.50;97.30;;;;;;5068652;28;20388;-77
2023/08/07 11:04:09;;;;;;;3.53;1.10;;;19.50;98.00;;;;;;5059636;28;20489;-75
2023/08/07 11:06:37;;;;;;;2.22;1.10;;;19.50;98.00;;;;;;5069594;28;20052;-69
2023/08/07 11:09:04;;;;;;;3.75;1.30;;;19.50;97.10;;;;;;5072275;28;20032;-70
2023/08/07 11:11:40;;;;;;;4.90;1.65;;;19.60;96.40;;;;;;5064121;28;20019;-69
2023/08/07 11:14:10;;;;;;;2.33;1.10;;;19.60;96.70;;;;;;5068730;28;20472;-69
2023/08/07 11:16:36;;;;;;;2.50;1.23;;;19.60;96.10;;;;;;5073925;28;20538;-69
2023/08/07 11:19:03;;;;;;;3.15;1.40;;;19.60;96.70;;;;;;5075075;28;20107;-69
2023/08/07 11:21:30;;;;;;;3.58;1.50;;;19.60;97.30;;;;;;5078142;28;20028;-70
2023/08/07 11:23:56;;;;;;;3.67;1.27;;;19.60;97.20;;;;;;5075294;28;20024;-70
2023/08/07 11:26:24;;;;;;;2.92;1.00;;;19.60;97.00;;;;;;5068957;28;20032;-72
2023/08/07 11:28:50;;;;;;;3.40;1.40;;;19.60;97.30;;;;;;5073117;28;20030;-70
2023/08/07 11:31:17;;;;;;;2.22;0.98;;;19.60;97.10;;;;;;5071786;28;20021;-70
2023/08/07 11:33:43;;;;;;;5.60;1.40;;;19.60;97.00;;;;;;5070162;28;20394;-69
2023/08/07 11:36:13;;;;;;;2.47;1.00;;;19.60;97.00;;;;;;5075892;28;20024;-69
2023/08/07 11:38:43;;;;;;;2.60;0.85;;;19.70;96.70;;;;;;5074398;28;20440;-69
2023/08/07 11:41:10;;;;;;;2.78;1.17;;;19.60;96.70;;;;;;5075626;28;20115;-69
2023/08/07 11:43:37;;;;;;;3.25;0.93;;;19.70;96.90;;;;;;5073215;28;20111;-70
2023/08/07 11:46:08;;;;;;;2.17;1.00;;;19.70;96.90;;;;;;5074022;28;20052;-70
2023/08/07 11:48:35;;;;;;;2.67;1.00;;;19.70;96.60;;;;;;5068138;28;20036;-69
2023/08/07 11:51:02;;;;;;;3.80;1.40;;;19.80;96.90;;;;;;5071285;28;20017;-68
2023/08/07 11:53:30;;;;;;;4.70;1.08;;;19.80;96.40;;;;;;5071705;28;20040;-67
2023/08/07 11:56:05;;;;;;;1.58;0.82;;;19.80;97.30;;;;;;5072609;28;20020;-69
2023/08/07 11:58:41;;;;;;;1.60;0.90;;;19.80;97.40;;;;;;5065830;28;20135;-68
2023/08/07 12:01:17;;;;;;;2.33;1.23;;;19.80;97.40;;;;;;5070227;28;20070;-68
2023/08/07 12:04:05;;;;;;;3.00;1.23;;;19.90;97.50;;;;;;5068105;28;20404;-68
2023/08/07 12:06:31;;;;;;;1.10;0.70;;;19.90;97.90;;;;;;5063944;28;20477;-69
2023/08/07 12:08:57;;;;;;;2.78;1.05;;;19.90;97.80;;;;;;5064698;28;20020;-68
2023/08/07 12:11:24;;;;;;;3.08;0.95;;;19.90;97.40;;;;;;5073511;28;20040;-69
2023/08/07 12:13:51;;;;;;;4.32;1.00;;;19.90;97.00;;;;;;5074083;28;20029;-72
2023/08/07 12:16:17;;;;;;;3.05;0.90;;;20.00;97.40;;;;;;5073791;28;20021;-72
2023/08/07 12:18:51;;;;;;;2.50;0.98;;;20.00;97.40;;;;;;5065860;28;20028;-71
2023/08/07 12:21:23;;;;;;;3.20;0.90;;;20.00;97.20;;;;;;5065609;28;20059;-70
2023/08/07 12:23:50;;;;;;;2.90;0.88;;;20.10;96.90;;;;;;5071615;28;20115;-70
2023/08/07 12:26:22;;;;;;;1.60;0.80;;;20.20;96.90;;;;;;5063801;28;20489;-70
2023/08/07 12:28:49;;;;;;;;;;;20.10;97.10;;;;;;5068037;28;20544;-73
2023/08/07 12:31:14;;;;;;;1.92;1.02;;;20.10;97.30;;;;;;5072509;28;20300;-73
2023/08/07 12:33:40;;;;;;;2.22;0.70;;;20.10;96.70;;;;;;5068615;28;20098;-72
2023/08/07 12:36:08;;;;;;;1.85;1.10;;;20.10;96.30;;;;;;5071037;28;20108;-69
2023/08/07 12:38:33;;;;;;;2.55;1.02;;;20.10;96.80;;;;;;5070138;28;20084;-68
2023/08/07 12:40:59;;;;;;;3.05;1.50;;;20.20;97.10;;;;;;5072533;28;20099;-68
2023/08/07 12:43:26;;;;;;;3.40;1.00;;;20.20;97.20;;;;;;5071721;28;20462;-70